createdAt,value
2019-05-21T00:00:47.059Z,26.37
2019-05-21T00:03:13.166Z,28.83
2019-05-21T00:05:39.280Z,30.17
2019-05-21T00:08:05.420Z,30.47
2019-05-21T00:10:31.620Z,22.93
2019-05-21T00:12:57.849Z,28.53
2019-05-21T00:15:24.095Z,30.83
2019-05-21T00:17:50.201Z,26.57
2019-05-21T00:20:16.624Z,30.87
2019-05-21T00:22:42.771Z,23.13
2019-05-21T00:25:09.138Z,25.57
2019-05-21T00:27:35.259Z,28.97
2019-05-21T00:30:38.332Z,26.73
2019-05-21T00:33:41.528Z,33.27
2019-05-21T00:36:45.546Z,29.73
2019-05-21T00:39:48.646Z,29.47
2019-05-21T00:42:18.708Z,29.60
2019-05-21T00:44:44.900Z,26.00
2019-05-21T00:47:11.719Z,29.67
2019-05-21T00:49:38.050Z,30.17
2019-05-21T00:52:08.526Z,26.93
2019-05-21T00:54:32.772Z,28.87
2019-05-21T00:56:59.019Z,32.03
2019-05-21T00:59:25.350Z,26.27
2019-05-21T01:01:51.551Z,26.77
2019-05-21T01:04:17.698Z,28.23
2019-05-21T01:06:43.914Z,29.63
2019-05-21T01:09:10.250Z,25.60
2019-05-21T01:11:36.573Z,28.83
2019-05-21T01:14:03.095Z,26.23
2019-05-21T01:16:29.237Z,25.70
2019-05-21T01:18:55.402Z,22.73
2019-05-21T01:21:21.589Z,26.00
2019-05-21T01:23:47.706Z,30.40
2019-05-21T01:26:13.966Z,29.00
2019-05-21T01:28:40.168Z,31.00
2019-05-21T01:31:06.279Z,28.73
2019-05-21T01:33:32.422Z,31.07
2019-05-21T01:35:58.555Z,34.90
2019-05-21T01:38:24.771Z,29.63
2019-05-21T01:40:51.082Z,32.70
2019-05-21T01:43:17.253Z,26.97
2019-05-21T01:45:43.365Z,27.80
2019-05-21T01:48:09.502Z,30.90
2019-05-21T01:50:35.631Z,28.77
2019-05-21T01:53:01.783Z,25.43
2019-05-21T01:55:27.998Z,31.43
2019-05-21T01:57:54.196Z,27.53
2019-05-21T02:00:20.321Z,22.80
2019-05-21T02:02:46.472Z,31.17
2019-05-21T02:05:12.781Z,28.23
2019-05-21T02:07:38.984Z,27.43
2019-05-21T02:10:05.629Z,24.57
2019-05-21T02:12:31.925Z,30.00
2019-05-21T02:14:58.056Z,27.50
2019-05-21T02:17:24.212Z,26.90
2019-05-21T02:19:50.620Z,37.17
2019-05-21T02:22:16.729Z,27.17
2019-05-21T02:24:42.948Z,33.73
2019-05-21T02:27:09.089Z,36.00
2019-05-21T02:29:35.196Z,34.50
2019-05-21T02:32:01.323Z,35.03
2019-05-21T02:34:27.465Z,33.40
2019-05-21T02:36:53.691Z,35.13
2019-05-21T02:39:19.931Z,34.87
2019-05-21T02:41:46.054Z,37.00
2019-05-21T02:44:12.181Z,35.60
2019-05-21T02:46:38.404Z,34.20
2019-05-21T02:49:04.629Z,29.67
2019-05-21T02:51:30.831Z,30.03
2019-05-21T02:53:57.061Z,27.50
2019-05-21T02:56:23.169Z,36.10
2019-05-21T02:58:49.370Z,29.80
2019-05-21T03:01:26.390Z,31.73
2019-05-21T03:03:52.677Z,31.53
2019-05-21T03:06:18.910Z,32.67
2019-05-21T03:08:45.139Z,32.77
2019-05-21T03:11:11.368Z,31.73
2019-05-21T03:13:37.501Z,40.93
2019-05-21T03:16:03.754Z,33.50
2019-05-21T03:18:29.981Z,37.67
2019-05-21T03:20:56.169Z,37.67
2019-05-21T03:23:22.295Z,35.93
2019-05-21T03:25:48.411Z,35.50
2019-05-21T03:28:14.804Z,35.73
2019-05-21T03:30:40.963Z,30.10
2019-05-21T03:33:07.096Z,32.60
2019-05-21T03:35:33.236Z,33.27
2019-05-21T03:37:59.474Z,32.87
2019-05-21T03:40:25.685Z,25.67
2019-05-21T03:42:52.298Z,35.07
2019-05-21T03:45:18.815Z,30.97
2019-05-21T03:47:44.927Z,29.67
2019-05-21T03:50:11.334Z,32.07
2019-05-21T03:52:37.467Z,30.33
2019-05-21T03:55:03.780Z,28.93
2019-05-21T03:57:29.983Z,30.13
2019-05-21T03:59:56.326Z,23.87
2019-05-21T04:02:22.566Z,25.07
2019-05-21T04:04:48.680Z,21.43
2019-05-21T04:07:14.826Z,27.83
2019-05-21T04:09:40.938Z,20.77
2019-05-21T04:12:07.137Z,21.80
2019-05-21T04:14:44.262Z,22.27
2019-05-21T04:17:27.545Z,26.03
2019-05-21T04:19:53.747Z,28.03
2019-05-21T04:22:19.972Z,24.17
2019-05-21T04:24:46.169Z,21.47
2019-05-21T04:27:12.718Z,20.17
2019-05-21T04:29:38.969Z,26.17
2019-05-21T04:32:05.186Z,23.57
2019-05-21T04:34:31.419Z,28.47
2019-05-21T04:37:09.906Z,27.47
2019-05-21T04:39:25.996Z,23.57
2019-05-21T04:41:52.206Z,23.40
2019-05-21T04:44:18.421Z,25.63
2019-05-21T04:46:44.558Z,26.53
2019-05-21T04:49:10.800Z,24.33
2019-05-21T04:51:37.015Z,25.03
2019-05-21T04:54:03.254Z,24.50
2019-05-21T04:56:29.496Z,21.90
2019-05-21T04:58:55.698Z,23.00
2019-05-21T05:01:21.808Z,27.17
2019-05-21T05:03:47.950Z,21.10
2019-05-21T05:06:14.088Z,26.23
2019-05-21T05:08:40.312Z,31.30
2019-05-21T05:11:06.593Z,27.57
2019-05-21T05:13:32.781Z,29.80
2019-05-21T05:15:58.954Z,29.10
2019-05-21T05:18:25.150Z,22.00
2019-05-21T05:20:51.390Z,25.40
2019-05-21T05:23:17.579Z,23.33
2019-05-21T05:25:43.717Z,22.40
2019-05-21T05:28:09.943Z,24.03
2019-05-21T05:30:36.370Z,24.07
2019-05-21T05:33:02.685Z,26.50
2019-05-21T05:35:28.919Z,25.33
2019-05-21T05:37:55.145Z,25.87
2019-05-21T05:40:21.392Z,30.17
2019-05-21T05:42:47.601Z,27.37
2019-05-21T05:45:14.195Z,24.03
2019-05-21T05:47:40.325Z,21.20
2019-05-21T05:50:09.437Z,25.97
2019-05-21T05:52:35.658Z,25.50
2019-05-21T05:55:03.503Z,24.70
2019-05-21T05:57:29.615Z,23.53
2019-05-21T05:59:55.824Z,29.07
2019-05-21T06:02:22.074Z,27.60
2019-05-21T06:04:48.309Z,22.10
2019-05-21T06:07:14.533Z,26.33
2019-05-21T06:09:40.774Z,27.63
2019-05-21T06:12:06.996Z,24.70
2019-05-21T06:14:33.213Z,20.23
2019-05-21T06:16:59.466Z,22.70
2019-05-21T06:19:25.795Z,23.77
2019-05-21T06:21:52.099Z,24.67
2019-05-21T06:24:18.444Z,21.17
2019-05-21T06:26:44.686Z,20.77
2019-05-21T06:29:10.789Z,21.57
2019-05-21T06:31:37.216Z,30.40
2019-05-21T06:34:03.534Z,31.10
2019-05-21T06:36:29.973Z,24.73
2019-05-21T06:38:56.228Z,24.53
2019-05-21T06:41:22.353Z,26.80
2019-05-21T06:43:48.468Z,25.73
2019-05-21T06:46:14.704Z,24.80
2019-05-21T06:48:40.863Z,23.03
2019-05-21T06:51:07.065Z,22.37
2019-05-21T06:53:33.193Z,19.87
2019-05-21T06:55:59.303Z,22.53
2019-05-21T06:58:25.454Z,17.77
2019-05-21T07:00:51.723Z,19.27
2019-05-21T07:03:17.940Z,23.93
2019-05-21T07:05:57.600Z,19.40
2019-05-21T07:08:12.066Z,23.23
2019-05-21T07:10:38.169Z,20.90
2019-05-21T07:13:04.385Z,20.27
2019-05-21T07:15:30.621Z,20.03
2019-05-21T07:17:56.854Z,20.40
2019-05-21T07:20:23.067Z,17.83
2019-05-21T07:22:49.274Z,16.00
2019-05-21T07:25:16.145Z,16.50
2019-05-21T07:27:42.351Z,15.87
2019-05-21T07:30:09.772Z,14.93
2019-05-21T07:32:35.989Z,16.63
2019-05-21T07:35:04.278Z,14.77
2019-05-21T07:37:30.513Z,15.03
2019-05-21T07:39:56.728Z,16.47
2019-05-21T07:42:22.938Z,18.17
2019-05-21T07:44:49.179Z,16.60
2019-05-21T07:47:15.414Z,13.63
2019-05-21T07:49:41.600Z,17.77
2019-05-21T07:52:07.830Z,15.87
2019-05-21T07:54:34.041Z,16.30
2019-05-21T07:57:00.257Z,13.77
2019-05-21T07:59:26.392Z,12.00
2019-05-21T08:01:52.605Z,12.07
2019-05-21T08:04:18.809Z,14.77
2019-05-21T08:06:44.958Z,9.90
2019-05-21T08:09:14.153Z,19.23
2019-05-21T08:11:39.244Z,16.30
2019-05-21T08:14:05.612Z,15.17
2019-05-21T08:16:31.705Z,11.87
2019-05-21T08:18:57.911Z,14.27
2019-05-21T08:21:24.137Z,11.97
2019-05-21T08:23:50.248Z,12.43
2019-05-21T08:26:16.362Z,11.53
2019-05-21T08:28:42.526Z,15.70
2019-05-21T08:31:08.754Z,20.07
2019-05-21T08:33:35.090Z,11.40
2019-05-21T08:36:01.305Z,14.13
2019-05-21T08:38:27.450Z,13.63
2019-05-21T08:40:53.673Z,12.80
2019-05-21T08:43:22.100Z,14.83
2019-05-21T08:45:47.866Z,19.37
2019-05-21T08:48:14.104Z,12.37
2019-05-21T08:50:40.369Z,10.37
2019-05-21T08:53:06.572Z,13.43
2019-05-21T08:55:33.013Z,11.17
2019-05-21T09:00:27.573Z,17.10
2019-05-21T09:01:58.746Z,13.97
2019-05-21T09:02:53.965Z,11.63
2019-05-21T09:05:20.298Z,9.80
2019-05-21T09:07:52.643Z,13.00
2019-05-21T09:10:14.769Z,12.93
2019-05-21T09:12:41.009Z,16.83
2019-05-21T09:15:08.135Z,10.50
2019-05-21T09:17:34.246Z,19.90
2019-05-21T09:20:00.596Z,13.97
2019-05-21T09:22:26.882Z,12.70
2019-05-21T09:24:52.995Z,15.40
2019-05-21T09:27:19.336Z,10.60
2019-05-21T09:29:45.648Z,16.37
2019-05-21T09:32:11.953Z,16.03
2019-05-21T09:34:47.917Z,15.07
2019-05-21T09:37:18.669Z,12.23
2019-05-21T09:39:34.425Z,13.07
2019-05-21T09:42:00.639Z,11.53
2019-05-21T09:44:26.755Z,14.90
2019-05-21T09:46:52.983Z,12.10
2019-05-21T09:49:19.128Z,8.63
2019-05-21T09:51:45.264Z,16.70
2019-05-21T09:54:11.678Z,12.37
2019-05-21T09:56:37.943Z,13.77
2019-05-21T09:59:16.635Z,17.37
2019-05-21T10:01:48.025Z,12.13
2019-05-21T10:04:12.883Z,12.73
2019-05-21T10:06:39.193Z,12.70
2019-05-21T10:09:08.562Z,17.40
2019-05-21T10:11:34.758Z,18.10
2019-05-21T10:14:00.868Z,14.20
2019-05-21T10:16:27.014Z,14.20
2019-05-21T10:18:53.221Z,12.00
2019-05-21T10:21:19.702Z,14.77
2019-05-21T10:23:46.051Z,16.40
2019-05-21T10:26:12.412Z,13.20
2019-05-21T10:28:38.747Z,13.27
2019-05-21T10:31:05.079Z,12.83
2019-05-21T10:33:31.315Z,12.97
2019-05-21T10:35:57.716Z,15.20
2019-05-21T10:38:23.859Z,13.07
2019-05-21T10:40:50.212Z,10.80
2019-05-21T10:43:16.445Z,13.67
2019-05-21T10:45:42.789Z,15.47
2019-05-21T10:48:09.003Z,12.10
2019-05-21T10:50:35.249Z,11.03
2019-05-21T10:53:01.565Z,14.90
2019-05-21T10:55:27.665Z,8.90
2019-05-21T10:57:53.780Z,9.87
2019-05-21T11:00:23.099Z,11.43
2019-05-21T11:02:59.631Z,10.97
2019-05-21T11:05:28.920Z,9.43
2019-05-21T11:07:55.394Z,8.93
2019-05-21T11:10:21.611Z,10.53
2019-05-21T11:12:47.764Z,12.47
2019-05-21T11:15:15.170Z,10.43
2019-05-21T11:17:58.802Z,13.63
2019-05-21T11:20:09.629Z,10.87
2019-05-21T11:22:35.748Z,9.63
2019-05-21T11:25:03.871Z,10.77
2019-05-21T11:27:30.237Z,10.83
2019-05-21T11:29:56.466Z,11.40
2019-05-21T11:32:22.659Z,11.27
2019-05-21T11:34:50.315Z,12.47
2019-05-21T11:37:16.865Z,12.47
2019-05-21T11:39:42.985Z,11.87
2019-05-21T11:42:09.122Z,11.18
2019-05-21T11:44:35.328Z,13.10
2019-05-21T11:47:01.438Z,11.00
2019-05-21T11:49:27.573Z,13.70
2019-05-21T11:51:53.871Z,13.70
2019-05-21T11:54:19.996Z,9.33
2019-05-21T11:56:46.369Z,13.00
2019-05-21T11:59:12.482Z,13.93
2019-05-21T12:01:38.623Z,10.90
2019-05-21T12:04:04.885Z,12.83
2019-05-21T12:06:31.200Z,14.77
2019-05-21T12:08:57.514Z,15.13
2019-05-21T12:11:23.704Z,15.30
2019-05-21T12:13:50.034Z,14.83
2019-05-21T12:16:16.274Z,11.47
2019-05-21T12:18:42.604Z,13.60
2019-05-21T12:21:08.825Z,12.67
2019-05-21T12:23:34.951Z,13.67
2019-05-21T12:26:01.213Z,13.63
2019-05-21T12:28:27.403Z,15.03
2019-05-21T12:30:53.605Z,15.00
2019-05-21T12:33:19.805Z,12.73
2019-05-21T12:35:46.019Z,15.67
2019-05-21T12:38:12.383Z,14.90
2019-05-21T12:40:38.731Z,15.57
2019-05-21T12:43:04.935Z,14.93
2019-05-21T12:45:31.055Z,14.57
2019-05-21T12:47:57.273Z,17.87
2019-05-21T12:50:23.497Z,16.67
2019-05-21T12:52:49.805Z,16.93
2019-05-21T12:55:16.137Z,16.00
2019-05-21T12:57:42.250Z,14.83
2019-05-21T13:00:12.011Z,17.67
2019-05-21T13:02:38.299Z,15.63
2019-05-21T13:05:05.033Z,23.27
2019-05-21T13:07:31.295Z,20.30
2019-05-21T13:09:57.618Z,20.63
2019-05-21T13:12:23.814Z,20.63
2019-05-21T13:14:50.015Z,22.07
2019-05-21T13:17:16.305Z,20.53
2019-05-21T13:19:42.536Z,21.30
2019-05-21T13:22:08.838Z,23.37
2019-05-21T13:24:35.217Z,18.97
2019-05-21T13:27:01.425Z,17.97
2019-05-21T13:29:27.759Z,20.70
2019-05-21T13:31:53.985Z,23.07
2019-05-21T13:34:20.204Z,19.27
2019-05-21T13:36:46.336Z,25.00
2019-05-21T13:39:12.634Z,17.83
2019-05-21T13:41:38.950Z,23.33
2019-05-21T13:44:05.176Z,20.70
2019-05-21T13:46:31.446Z,20.27
2019-05-21T13:48:57.692Z,24.87
2019-05-21T13:51:23.881Z,26.43
2019-05-21T13:53:50.140Z,28.03
2019-05-21T13:56:16.360Z,24.63
2019-05-21T13:58:42.878Z,25.47
2019-05-21T14:01:09.914Z,24.47
2019-05-21T14:03:36.339Z,22.60
2019-05-21T14:06:02.686Z,27.73
2019-05-21T14:08:29.136Z,25.43
2019-05-21T14:10:55.650Z,28.40
2019-05-21T14:13:22.007Z,27.65
2019-05-21T14:15:48.222Z,27.70
2019-05-21T14:18:14.543Z,25.27
2019-05-21T14:20:40.782Z,24.33
2019-05-21T14:23:07.022Z,25.70
2019-05-21T14:25:33.340Z,29.07
2019-05-21T14:28:00.243Z,28.47
2019-05-21T14:30:26.588Z,30.30
2019-05-21T14:32:52.827Z,28.03
2019-05-21T14:35:19.072Z,29.80
2019-05-21T14:37:45.333Z,28.50
2019-05-21T14:40:28.469Z,28.67
2019-05-21T14:42:40.666Z,35.90
2019-05-21T14:45:07.325Z,32.40
2019-05-21T14:47:33.518Z,33.40
2019-05-21T14:49:59.729Z,35.77
2019-05-21T14:52:25.970Z,32.83
2019-05-21T14:54:52.095Z,35.40
2019-05-21T14:57:18.296Z,35.97
2019-05-21T14:59:44.546Z,39.03
2019-05-21T15:02:10.770Z,37.33
2019-05-21T15:04:37.282Z,39.63
2019-05-21T15:07:04.019Z,36.70
2019-05-21T15:09:33.704Z,43.53
2019-05-21T15:11:59.909Z,40.73
2019-05-21T15:14:26.057Z,41.67
2019-05-21T15:16:52.267Z,43.07
2019-05-21T15:19:18.481Z,41.43
2019-05-21T15:21:49.029Z,39.03
2019-05-21T15:24:15.282Z,39.63
2019-05-21T15:26:41.595Z,41.47
2019-05-21T15:29:07.867Z,42.07
2019-05-21T15:31:34.076Z,40.20
2019-05-21T15:34:00.379Z,48.53
2019-05-21T15:36:26.553Z,45.47
2019-05-21T15:38:52.795Z,45.77
2019-05-21T15:41:19.095Z,42.23
2019-05-21T15:43:45.434Z,41.30
2019-05-21T15:46:11.628Z,47.40
2019-05-21T15:48:37.804Z,46.20
2019-05-21T15:51:03.989Z,40.87
2019-05-21T15:53:30.150Z,40.37
2019-05-21T15:55:56.461Z,43.60
2019-05-21T15:58:26.502Z,47.47
2019-05-21T16:00:50.631Z,43.77
2019-05-21T16:03:16.910Z,44.57
2019-05-21T16:05:43.163Z,41.70
2019-05-21T16:08:09.470Z,40.77
2019-05-21T16:10:35.849Z,36.97
2019-05-21T16:13:02.377Z,39.30
2019-05-21T16:15:28.684Z,41.73
2019-05-21T16:17:54.974Z,50.93
2019-05-21T16:20:24.404Z,40.40
2019-05-21T16:22:50.657Z,38.57
2019-05-21T16:25:18.918Z,37.73
2019-05-21T16:27:47.382Z,36.23
2019-05-21T16:30:13.713Z,37.73
2019-05-21T16:32:40.282Z,37.57
2019-05-21T16:35:07.301Z,40.13
2019-05-21T16:37:33.788Z,40.93
2019-05-21T16:40:01.596Z,46.33
2019-05-21T16:42:28.077Z,41.67
2019-05-21T16:44:54.305Z,40.40
2019-05-21T16:47:20.754Z,48.17
2019-05-21T16:49:47.169Z,41.60
2019-05-21T16:52:13.856Z,40.63
2019-05-21T16:54:40.230Z,45.27
2019-05-21T16:57:06.726Z,40.67
2019-05-21T16:59:33.034Z,39.93
2019-05-21T17:01:59.520Z,43.73
2019-05-21T17:04:25.750Z,42.83
2019-05-21T17:06:52.147Z,43.57
2019-05-21T17:09:18.351Z,44.87
2019-05-21T17:11:58.714Z,47.93
2019-05-21T17:14:13.047Z,47.23
2019-05-21T17:16:39.254Z,44.90
2019-05-21T17:19:05.518Z,36.63
2019-05-21T17:21:31.670Z,38.93
2019-05-21T17:23:57.980Z,40.50
2019-05-21T17:26:24.200Z,40.90
2019-05-21T17:28:50.522Z,38.07
2019-05-21T17:31:16.642Z,36.40
2019-05-21T17:33:43.873Z,33.30
2019-05-21T17:36:10.125Z,32.13
2019-05-21T17:38:36.351Z,32.37
2019-05-21T17:41:03.007Z,32.83
2019-05-21T17:43:29.283Z,35.50
2019-05-21T17:45:55.615Z,30.57
2019-05-21T17:48:22.084Z,29.67
2019-05-21T17:50:48.617Z,31.37
2019-05-21T17:53:14.876Z,30.27
2019-05-21T17:55:41.186Z,33.73
2019-05-21T17:58:07.723Z,28.80
2019-05-21T18:00:44.858Z,29.70
2019-05-21T18:03:11.181Z,31.40
2019-05-21T18:05:37.637Z,27.80
2019-05-21T18:08:04.727Z,29.67
2019-05-21T18:10:31.231Z,30.80
2019-05-21T18:12:58.204Z,28.43
2019-05-21T18:15:27.098Z,25.57
2019-05-21T18:17:53.343Z,23.23
2019-05-21T18:20:21.192Z,28.60
2019-05-21T18:22:47.975Z,29.03
2019-05-21T18:25:14.665Z,26.27
2019-05-21T18:27:41.081Z,27.43
2019-05-21T18:30:08.199Z,32.67
2019-05-21T18:32:35.009Z,25.03
2019-05-21T18:35:01.501Z,28.07
2019-05-21T18:37:28.968Z,25.57
2019-05-21T18:39:55.251Z,29.17
2019-05-21T18:42:22.696Z,27.70
2019-05-21T18:44:49.417Z,28.80
2019-05-21T18:47:16.032Z,24.97
2019-05-21T18:49:42.523Z,24.80
2019-05-21T18:52:09.093Z,27.23
2019-05-21T18:54:35.418Z,29.70
2019-05-21T18:57:01.953Z,33.27
2019-05-21T18:59:28.495Z,31.17
2019-05-21T19:01:54.987Z,30.17
2019-05-21T19:04:21.284Z,28.73
2019-05-21T19:06:47.815Z,31.30
2019-05-21T19:09:14.515Z,27.10
2019-05-21T19:11:41.044Z,33.37
2019-05-21T19:14:07.487Z,28.37
2019-05-21T19:16:35.105Z,30.63
2019-05-21T19:19:01.752Z,30.80
2019-05-21T19:21:28.280Z,27.47
2019-05-21T19:23:54.816Z,31.40
2019-05-21T19:26:21.520Z,31.67
2019-05-21T19:28:47.995Z,27.20
2019-05-21T19:31:14.379Z,29.07
2019-05-21T19:33:40.765Z,26.63
2019-05-21T19:36:07.315Z,30.03
2019-05-21T19:38:37.062Z,29.37
2019-05-21T19:41:01.984Z,30.73
2019-05-21T19:43:28.696Z,26.50
2019-05-21T19:45:55.166Z,26.03
2019-05-21T19:48:21.405Z,29.98
2019-05-21T19:50:47.747Z,25.13
2019-05-21T19:53:14.165Z,25.60
2019-05-21T19:55:40.585Z,28.13
2019-05-21T19:58:07.217Z,30.77
2019-05-21T20:00:35.609Z,26.57
2019-05-21T20:03:02.211Z,29.17
2019-05-21T20:05:29.049Z,26.97
2019-05-21T20:07:55.796Z,30.43
2019-05-21T20:10:21.998Z,34.53
2019-05-21T20:12:48.340Z,30.60
2019-05-21T20:15:14.809Z,30.30
2019-05-21T20:17:43.161Z,32.30
2019-05-21T20:20:11.166Z,23.50
2019-05-21T20:22:37.971Z,27.17
2019-05-21T20:25:04.333Z,30.27
2019-05-21T20:27:31.201Z,21.83
2019-05-21T20:30:11.703Z,28.50
2019-05-21T20:32:26.743Z,28.30
2019-05-21T20:34:53.151Z,24.57
2019-05-21T20:37:21.279Z,23.03
2019-05-21T20:39:48.017Z,26.57
2019-05-21T20:42:17.900Z,26.67
2019-05-21T20:44:44.233Z,27.30
2019-05-21T20:47:12.561Z,32.30
2019-05-21T20:49:39.833Z,25.43
2019-05-21T20:52:18.222Z,29.30
2019-05-21T20:54:35.154Z,33.57
2019-05-21T20:57:03.860Z,33.50
2019-05-21T20:59:30.057Z,35.27
2019-05-21T21:01:57.072Z,30.77
2019-05-21T21:04:23.284Z,31.60
2019-05-21T21:06:49.726Z,26.90
2019-05-21T21:09:16.880Z,31.30
2019-05-21T21:11:45.189Z,31.77
2019-05-21T21:14:17.947Z,32.27
2019-05-21T21:16:41.814Z,30.13
2019-05-21T21:19:08.820Z,30.90
2019-05-21T21:21:35.557Z,29.93
2019-05-21T21:24:03.601Z,29.47
2019-05-21T21:26:30.560Z,30.47
2019-05-21T21:28:56.943Z,32.00
2019-05-21T21:31:23.343Z,35.87
2019-05-21T21:33:49.793Z,38.90
2019-05-21T21:36:16.278Z,35.30
2019-05-21T21:38:42.557Z,38.23
2019-05-21T21:41:09.166Z,38.97
2019-05-21T21:43:35.906Z,39.73
2019-05-21T21:46:02.355Z,41.13
2019-05-21T21:48:29.332Z,45.10
2019-05-21T21:50:56.944Z,47.30
2019-05-21T21:53:23.239Z,42.40
2019-05-21T21:55:49.483Z,41.57
2019-05-21T21:58:16.166Z,38.90
2019-05-21T22:01:15.403Z,36.47
2019-05-21T22:03:43.558Z,40.90
2019-05-21T22:06:11.288Z,41.33
2019-05-21T22:08:38.097Z,40.47
2019-05-21T22:11:06.116Z,39.80
2019-05-21T22:13:32.317Z,40.23
2019-05-21T22:15:58.972Z,44.33
2019-05-21T22:18:25.302Z,43.07
2019-05-21T22:20:51.607Z,44.57
2019-05-21T22:23:18.446Z,43.67
2019-05-21T22:25:44.754Z,39.63
2019-05-21T22:28:11.303Z,41.53
2019-05-21T22:30:37.785Z,40.57
2019-05-21T22:33:04.111Z,40.33
2019-05-21T22:35:30.644Z,42.67
2019-05-21T22:37:57.286Z,39.07
2019-05-21T22:40:23.701Z,46.07
2019-05-21T22:42:50.274Z,46.17
2019-05-21T22:45:16.855Z,53.67
2019-05-21T22:47:43.184Z,53.20
2019-05-21T22:50:09.907Z,62.97
2019-05-21T22:52:36.425Z,57.93
2019-05-21T22:55:05.125Z,51.37
2019-05-21T22:57:31.419Z,60.60
2019-05-21T22:59:57.786Z,58.00
2019-05-21T23:02:26.066Z,61.70
2019-05-21T23:04:52.330Z,55.17
2019-05-21T23:07:18.716Z,54.13
2019-05-21T23:09:45.154Z,54.90
2019-05-21T23:12:11.471Z,50.53
2019-05-21T23:14:37.732Z,52.47
2019-05-21T23:17:05.937Z,53.00
2019-05-21T23:19:32.405Z,52.23
2019-05-21T23:22:00.402Z,54.77
2019-05-21T23:24:29.037Z,55.23
2019-05-21T23:26:56.341Z,49.97
2019-05-21T23:29:23.524Z,52.10
2019-05-21T23:31:50.009Z,50.57
2019-05-21T23:34:18.139Z,46.87
2019-05-21T23:36:46.769Z,44.83
2019-05-21T23:39:15.053Z,51.50
2019-05-21T23:41:41.410Z,59.33
2019-05-21T23:44:08.353Z,48.73
2019-05-21T23:46:34.519Z,53.93
2019-05-21T23:49:00.818Z,55.87
2019-05-21T23:51:27.456Z,52.40
2019-05-21T23:53:53.805Z,50.70
2019-05-21T23:56:20.253Z,51.00
2019-05-21T23:58:48.115Z,51.87
